Time;durP1;ratioP1;P1;durP2;ratioP2;P2;SDS_P1;SDS_P2;PMS_P1;PMS_P2;Temp;Humidity;BMP_temperature;BMP_pressure;BME280_temperature;BME280_humidity;BME280_pressure;Samples;Min_cycle;Max_cycle;Signal;HPM_P1;HPM_P2
2023/10/30 00:00:08;;;;;;;2.58;0.60;;;24.10;30.30;;;;;;6049041;29;20109;-72
2023/10/30 00:03:11;;;;;;;1.58;0.40;;;24.10;31.00;;;;;;6050018;29;20579;-72
2023/10/30 00:06:12;;;;;;;6.30;0.45;;;24.10;30.40;;;;;;6049346;29;20037;-72
2023/10/30 00:09:15;;;;;;;2.30;0.82;;;24.00;30.50;;;;;;6049490;29;20033;-71
2023/10/30 00:12:16;;;;;;;0.88;0.57;;;24.00;30.70;;;;;;6049158;29;20544;-72
2023/10/30 00:15:17;;;;;;;2.05;0.75;;;24.00;30.90;;;;;;6049560;29;20037;-73
2023/10/30 00:18:18;;;;;;;0.60;0.50;;;24.00;30.90;;;;;;6047825;29;20062;-73
2023/10/30 00:21:19;;;;;;;2.63;0.77;;;24.00;30.80;;;;;;6050739;29;20029;-73
2023/10/30 00:24:23;;;;;;;5.65;0.60;;;24.00;30.60;;;;;;6052487;29;20059;-70
2023/10/30 00:27:24;;;;;;;1.20;0.63;;;24.00;30.50;;;;;;6050366;29;20168;-70
2023/10/30 00:30:28;;;;;;;0.40;0.38;;;24.10;30.60;;;;;;6047411;29;20029;-74
2023/10/30 00:33:30;;;;;;;0.80;0.52;;;24.00;30.60;;;;;;6062808;29;20040;-74
2023/10/30 00:36:31;;;;;;;5.43;0.52;;;24.10;30.60;;;;;;6049410;29;20111;-72
2023/10/30 00:39:32;;;;;;;0.45;0.30;;;24.10;30.70;;;;;;6049223;29;20123;-72
2023/10/30 00:42:33;;;;;;;5.60;0.70;;;24.10;30.70;;;;;;6049649;29;20426;-72
2023/10/30 00:45:34;;;;;;;3.30;0.68;;;24.10;30.80;;;;;;6049393;29;20040;-72
2023/10/30 00:48:36;;;;;;;5.90;0.60;;;24.10;31.00;;;;;;6049157;29;20033;-72
2023/10/30 00:51:40;;;;;;;4.07;0.80;;;24.10;30.90;;;;;;6049237;29;20389;-73
2023/10/30 00:54:41;;;;;;;1.90;0.57;;;24.10;31.00;;;;;;6047522;29;20466;-73
2023/10/30 00:57:42;;;;;;;1.98;0.52;;;24.10;31.00;;;;;;6049375;29;20068;-73
2023/10/30 01:00:44;;;;;;;11.38;0.60;;;24.10;31.10;;;;;;6049324;29;20032;-72
2023/10/30 01:03:46;;;;;;;4.95;0.70;;;24.10;31.10;;;;;;6049141;29;20033;-72
2023/10/30 01:06:46;;;;;;;1.50;0.57;;;24.10;31.10;;;;;;6049075;29;20060;-73
2023/10/30 01:09:49;;;;;;;0.98;0.60;;;24.10;30.90;;;;;;6063016;29;20096;-71
2023/10/30 01:12:49;;;;;;;3.15;0.60;;;24.10;31.00;;;;;;6048605;29;20024;-71
2023/10/30 01:15:54;;;;;;;3.47;0.80;;;24.20;30.90;;;;;;6047032;29;20438;-71
2023/10/30 01:18:55;;;;;;;6.05;0.80;;;24.10;30.80;;;;;;6048342;29;20033;-72
2023/10/30 01:21:56;;;;;;;5.15;0.43;;;24.20;30.80;;;;;;6047003;29;20037;-71
2023/10/30 01:24:58;;;;;;;2.33;0.50;;;24.10;30.70;;;;;;6046838;29;20079;-71
2023/10/30 01:27:59;;;;;;;2.40;0.70;;;24.20;30.70;;;;;;6046898;29;20523;-74
2023/10/30 01:31:00;;;;;;;3.40;0.47;;;24.10;30.80;;;;;;6048646;29;20030;-73
2023/10/30 01:34:01;;;;;;;4.10;0.70;;;24.20;30.90;;;;;;6048476;29;20063;-71
2023/10/30 01:37:02;;;;;;;4.75;0.90;;;24.20;31.00;;;;;;6048299;29;20029;-73
2023/10/30 01:40:05;;;;;;;2.15;0.60;;;24.10;31.10;;;;;;6048022;29;20084;-72
2023/10/30 01:43:09;;;;;;;0.75;0.40;;;24.00;31.30;;;;;;6047057;29;20097;-71
2023/10/30 01:46:10;;;;;;;3.60;0.73;;;24.00;31.50;;;;;;6049405;29;20079;-71
2023/10/30 01:49:11;;;;;;;4.80;0.98;;;24.00;31.60;;;;;;6050923;29;20132;-71
2023/10/30 01:52:13;;;;;;;3.80;0.60;;;23.90;31.70;;;;;;6052563;29;20029;-71
2023/10/30 01:55:18;;;;;;;3.15;1.00;;;23.90;31.90;;;;;;6052134;29;20033;-73
2023/10/30 01:58:19;;;;;;;4.22;0.80;;;23.90;32.10;;;;;;6052552;29;20438;-72
2023/10/30 02:01:23;;;;;;;0.88;0.40;;;23.80;32.30;;;;;;6052572;29;20033;-71
2023/10/30 02:04:25;;;;;;;1.13;0.70;;;23.80;32.60;;;;;;6050622;29;20049;-71
2023/10/30 02:07:26;;;;;;;1.25;0.45;;;23.70;32.80;;;;;;6052526;29;20041;-71
2023/10/30 02:10:27;;;;;;;2.28;0.60;;;23.60;32.80;;;;;;6054189;29;20562;-72
2023/10/30 02:13:28;;;;;;;5.90;0.80;;;23.60;33.00;;;;;;6055088;29;20067;-71
2023/10/30 02:16:29;;;;;;;3.63;0.50;;;23.60;33.00;;;;;;6037966;29;20100;-71
2023/10/30 02:19:31;;;;;;;2.85;1.13;;;23.60;33.10;;;;;;6069511;29;20036;-73
2023/10/30 02:22:32;;;;;;;5.85;1.17;;;23.60;33.10;;;;;;6050170;29;20044;-72
2023/10/30 02:25:33;;;;;;;13.60;1.23;;;23.60;33.10;;;;;;6065945;29;20029;-73
2023/10/30 02:28:34;;;;;;;3.35;1.08;;;23.60;33.00;;;;;;6065686;29;20033;-74
2023/10/30 02:31:35;;;;;;;3.42;0.80;;;23.60;32.90;;;;;;6066275;29;20033;-72
2023/10/30 02:34:36;;;;;;;3.50;0.88;;;23.60;32.90;;;;;;6065721;29;20043;-72
2023/10/30 02:37:37;;;;;;;0.77;0.50;;;23.60;33.00;;;;;;6051601;29;20070;-74
2023/10/30 02:40:39;;;;;;;2.33;0.70;;;23.60;33.00;;;;;;6064954;29;20033;-71
2023/10/30 02:43:40;;;;;;;3.30;0.60;;;23.60;33.10;;;;;;6049770;29;20045;-72
2023/10/30 02:46:41;;;;;;;3.40;0.73;;;23.50;33.10;;;;;;6049778;29;20044;-71
2023/10/30 02:49:42;;;;;;;4.47;1.15;;;23.50;33.40;;;;;;6051077;29;20086;-73
2023/10/30 02:52:45;;;;;;;1.40;0.50;;;23.50;33.50;;;;;;6065346;29;20029;-73
2023/10/30 02:55:46;;;;;;;0.88;0.50;;;23.50;33.70;;;;;;6049676;29;20526;-72
2023/10/30 02:58:47;;;;;;;3.58;0.80;;;23.50;33.70;;;;;;6064067;29;20047;-71
2023/10/30 03:01:48;;;;;;;1.30;0.60;;;23.50;33.70;;;;;;6030857;29;20161;-73
2023/10/30 03:04:50;;;;;;;1.80;0.75;;;23.50;33.50;;;;;;6047494;29;20036;-71
2023/10/30 03:07:51;;;;;;;5.18;0.57;;;23.50;33.40;;;;;;6048780;29;20037;-72
2023/10/30 03:10:52;;;;;;;4.03;0.77;;;23.50;33.50;;;;;;6048542;29;20044;-71
2023/10/30 03:13:53;;;;;;;0.55;0.55;;;23.50;33.50;;;;;;6050241;29;20490;-73
2023/10/30 03:16:54;;;;;;;2.30;0.70;;;23.50;33.60;;;;;;6048565;29;20045;-72
2023/10/30 03:19:55;;;;;;;4.60;0.95;;;23.50;33.70;;;;;;6050187;29;20056;-73
2023/10/30 03:22:56;;;;;;;0.73;0.60;;;23.40;33.70;;;;;;6050806;29;20055;-73
2023/10/30 03:25:57;;;;;;;6.05;1.15;;;23.40;33.80;;;;;;6033464;29;20033;-75
2023/10/30 03:28:59;;;;;;;1.42;0.55;;;23.50;33.90;;;;;;6038383;29;20077;-72
2023/10/30 03:32:01;;;;;;;3.83;0.70;;;23.50;33.90;;;;;;6041868;29;20025;-72
2023/10/30 03:35:02;;;;;;;1.15;0.55;;;23.50;33.80;;;;;;6049090;29;20032;-73
2023/10/30 03:38:03;;;;;;;2.53;0.65;;;23.60;33.90;;;;;;6048836;29;20108;-72
2023/10/30 03:41:04;;;;;;;2.42;0.77;;;23.60;34.00;;;;;;6050247;29;20324;-71
2023/10/30 03:44:08;;;;;;;2.30;0.65;;;23.70;34.00;;;;;;6050170;29;20064;-75
2023/10/30 03:47:09;;;;;;;2.88;0.80;;;23.70;34.00;;;;;;6050355;29;20044;-73
2023/10/30 03:50:14;;;;;;;1.95;0.73;;;23.80;34.10;;;;;;6048672;29;20076;-71
2023/10/30 03:53:15;;;;;;;4.93;0.60;;;23.80;34.10;;;;;;6050133;29;20029;-72
2023/10/30 03:56:16;;;;;;;1.88;0.77;;;23.80;34.10;;;;;;6050129;29;20474;-71
2023/10/30 03:59:17;;;;;;;3.28;0.93;;;23.80;34.20;;;;;;6049940;29;20041;-71
2023/10/30 04:02:18;;;;;;;2.67;0.60;;;23.80;34.30;;;;;;6050390;29;20044;-73
2023/10/30 04:05:19;;;;;;;3.63;0.80;;;23.80;34.20;;;;;;6049540;29;20168;-71
2023/10/30 04:08:23;;;;;;;8.38;1.23;;;23.80;34.10;;;;;;6051577;29;20033;-73
2023/10/30 04:11:24;;;;;;;5.53;1.17;;;23.80;34.10;;;;;;6057091;29;20033;-73
2023/10/30 04:14:25;;;;;;;5.65;0.60;;;23.80;34.10;;;;;;6049760;29;20017;-71
2023/10/30 04:17:29;;;;;;;0.30;0.30;;;23.80;34.20;;;;;;6048181;29;20461;-72
2023/10/30 04:20:30;;;;;;;1.35;0.50;;;23.90;34.20;;;;;;6049459;29;20029;-72
2023/10/30 04:23:31;;;;;;;1.73;0.60;;;23.90;34.10;;;;;;6049626;29;20666;-71
2023/10/30 04:26:34;;;;;;;1.10;0.70;;;23.90;34.10;;;;;;6046700;29;20037;-73
2023/10/30 04:29:38;;;;;;;6.88;0.80;;;24.00;34.10;;;;;;6026468;29;20121;-71
2023/10/30 04:32:39;;;;;;;1.38;0.63;;;23.90;34.10;;;;;;6026633;29;20052;-74
2023/10/30 04:35:40;;;;;;;2.13;0.70;;;23.90;34.20;;;;;;6025145;29;20041;-71
2023/10/30 04:38:44;;;;;;;4.25;0.80;;;23.90;34.30;;;;;;6024681;29;20059;-72
2023/10/30 04:41:45;;;;;;;1.92;0.70;;;23.90;34.50;;;;;;6026152;29;20033;-72
2023/10/30 04:44:46;;;;;;;0.60;0.60;;;23.90;34.70;;;;;;6049084;29;20045;-72
2023/10/30 04:47:47;;;;;;;3.47;1.00;;;23.80;34.90;;;;;;6063368;29;20041;-72
2023/10/30 04:50:48;;;;;;;2.88;0.80;;;23.80;35.10;;;;;;6047372;29;20164;-72
2023/10/30 04:53:53;;;;;;;3.25;0.80;;;23.80;35.30;;;;;;6048804;29;20064;-76
2023/10/30 04:56:54;;;;;;;2.15;1.05;;;23.70;35.40;;;;;;6048675;29;20572;-71
2023/10/30 04:59:55;;;;;;;2.42;0.60;;;23.70;35.50;;;;;;6044166;29;20034;-71
2023/10/30 05:02:56;;;;;;;3.00;0.70;;;23.70;35.70;;;;;;6025899;29;20616;-72
2023/10/30 05:06:01;;;;;;;1.50;0.60;;;23.60;35.60;;;;;;6036539;29;20137;-72
2023/10/30 05:09:03;;;;;;;0.55;0.50;;;23.70;35.60;;;;;;6048729;29;20049;-72
2023/10/30 05:12:05;;;;;;;2.33;0.65;;;23.70;35.50;;;;;;6048501;29;20393;-71
2023/10/30 05:15:08;;;;;;;1.27;0.70;;;23.80;35.50;;;;;;6047405;29;20040;-71
2023/10/30 05:18:08;;;;;;;3.25;0.63;;;23.80;35.40;;;;;;6046974;29;20069;-71
2023/10/30 05:21:09;;;;;;;6.82;0.77;;;23.90;35.30;;;;;;6050738;29;20037;-73
2023/10/30 05:24:10;;;;;;;2.05;0.63;;;23.80;35.30;;;;;;6051148;29;20044;-72
2023/10/30 05:27:11;;;;;;;2.40;0.60;;;23.90;35.50;;;;;;6051476;29;20058;-73
2023/10/30 05:30:13;;;;;;;0.77;0.50;;;23.90;35.60;;;;;;6052130;29;20036;-72
2023/10/30 05:33:17;;;;;;;4.63;0.52;;;23.90;35.70;;;;;;6052569;29;20056;-74
2023/10/30 05:36:18;;;;;;;2.90;0.77;;;23.90;35.80;;;;;;6052370;29;20497;-71
2023/10/30 05:39:18;;;;;;;1.90;0.70;;;23.90;35.90;;;;;;6052236;29;20032;-73
2023/10/30 05:42:19;;;;;;;5.00;0.90;;;23.90;36.00;;;;;;6046472;29;20030;-71
2023/10/30 05:45:20;;;;;;;2.95;0.50;;;23.90;35.90;;;;;;6027556;29;20040;-71
2023/10/30 05:48:21;;;;;;;1.63;0.55;;;23.90;35.90;;;;;;6027527;29;20030;-73
2023/10/30 05:51:22;;;;;;;1.25;0.80;;;23.90;36.00;;;;;;6029429;29;20056;-72
2023/10/30 05:54:23;;;;;;;1.48;0.52;;;23.80;36.00;;;;;;6027182;29;20029;-71
2023/10/30 05:57:24;;;;;;;3.75;0.80;;;23.90;36.20;;;;;;6043454;29;20037;-73
2023/10/30 06:00:25;;;;;;;3.38;0.70;;;23.90;36.40;;;;;;6036915;29;20041;-71
2023/10/30 06:03:26;;;;;;;2.75;0.80;;;23.80;36.40;;;;;;6057666;29;20032;-72
2023/10/30 06:06:27;;;;;;;7.15;0.70;;;23.80;36.50;;;;;;6051389;29;20493;-73
2023/10/30 06:09:28;;;;;;;3.40;1.13;;;23.80;36.50;;;;;;6050644;29;20052;-72
2023/10/30 06:12:29;;;;;;;5.05;0.85;;;23.80;36.40;;;;;;6051991;29;20037;-71
2023/10/30 06:15:30;;;;;;;4.50;0.80;;;23.90;36.20;;;;;;6051930;29;20343;-72
2023/10/30 06:18:31;;;;;;;2.20;0.75;;;23.90;36.20;;;;;;6051499;29;20477;-70
2023/10/30 06:21:32;;;;;;;7.78;1.30;;;23.90;36.10;;;;;;6051886;29;20033;-72
2023/10/30 06:24:33;;;;;;;3.47;1.10;;;23.90;36.20;;;;;;6051431;29;20154;-72
2023/10/30 06:27:34;;;;;;;2.13;0.80;;;23.80;36.50;;;;;;6049923;29;20474;-72
2023/10/30 06:30:35;;;;;;;3.50;1.30;;;23.60;36.90;;;;;;6049796;29;20096;-71
2023/10/30 06:33:36;;;;;;;3.25;1.40;;;23.30;37.30;;;;;;6051694;29;20036;-71
2023/10/30 06:36:37;;;;;;;3.20;1.05;;;23.10;37.70;;;;;;6049806;29;20037;-73
2023/10/30 06:39:38;;;;;;;1.33;0.73;;;22.80;38.30;;;;;;6051499;29;20140;-72
2023/10/30 06:42:39;;;;;;;3.67;1.13;;;22.70;38.80;;;;;;6051387;29;20051;-71
2023/10/30 06:45:40;;;;;;;4.65;1.30;;;22.40;39.10;;;;;;6051174;29;20116;-72
2023/10/30 06:48:41;;;;;;;7.47;1.75;;;22.20;39.90;;;;;;6050964;29;20040;-72
2023/10/30 06:51:43;;;;;;;8.20;1.88;;;22.00;40.10;;;;;;6051653;29;20025;-71
2023/10/30 06:54:44;;;;;;;5.72;2.00;;;21.80;40.40;;;;;;6050126;29;20029;-74
2023/10/30 06:57:45;;;;;;;10.60;2.17;;;21.60;40.60;;;;;;6027516;29;20116;-71
2023/10/30 07:00:46;;;;;;;4.88;1.55;;;21.40;41.00;;;;;;6036987;29;20036;-71
2023/10/30 07:03:47;;;;;;;5.38;1.75;;;21.30;41.30;;;;;;6049073;29;20033;-72
2023/10/30 07:06:50;;;;;;;2.97;1.38;;;21.20;41.70;;;;;;6048429;29;20044;-72
2023/10/30 07:09:54;;;;;;;6.05;1.45;;;20.90;41.90;;;;;;6049658;29;20017;-72
2023/10/30 07:12:55;;;;;;;3.45;1.38;;;20.90;42.40;;;;;;6048072;29;20033;-70
2023/10/30 07:15:56;;;;;;;12.88;1.40;;;20.80;42.50;;;;;;6050228;29;20419;-73
2023/10/30 07:18:57;;;;;;;2.75;1.40;;;20.70;42.70;;;;;;6049743;29;20029;-73
2023/10/30 07:21:58;;;;;;;3.55;1.25;;;20.60;42.70;;;;;;6050118;29;20683;-74
2023/10/30 07:25:00;;;;;;;3.08;1.08;;;20.50;42.80;;;;;;6050007;29;20032;-73
2023/10/30 07:28:02;;;;;;;1.95;1.13;;;20.50;43.30;;;;;;6049575;29;20427;-74
2023/10/30 07:31:05;;;;;;;2.28;1.20;;;20.50;43.30;;;;;;6050232;29;20475;-71
2023/10/30 07:34:06;;;;;;;5.55;0.85;;;20.40;43.40;;;;;;6049950;29;20067;-70
2023/10/30 07:37:08;;;;;;;6.43;1.02;;;20.40;43.40;;;;;;6049627;29;20071;-74
2023/10/30 07:40:09;;;;;;;6.82;1.35;;;20.40;43.50;;;;;;6048191;29;20052;-72
2023/10/30 07:43:10;;;;;;;4.78;1.20;;;20.40;43.90;;;;;;6047791;29;20123;-72
2023/10/30 07:46:14;;;;;;;7.13;1.42;;;20.30;43.90;;;;;;6049420;29;20446;-73
2023/10/30 07:49:15;;;;;;;1.52;0.88;;;20.30;43.90;;;;;;6049266;29;20032;-71
2023/10/30 07:52:16;;;;;;;12.35;1.60;;;20.30;44.10;;;;;;6050264;29;20033;-71
2023/10/30 07:55:18;;;;;;;3.50;1.25;;;20.30;44.20;;;;;;6052424;29;20085;-72
2023/10/30 07:58:19;;;;;;;9.02;1.48;;;20.20;44.20;;;;;;6052655;29;20032;-73
2023/10/30 08:01:23;;;;;;;3.53;1.35;;;20.20;44.40;;;;;;6048372;29;20049;-72
2023/10/30 08:04:24;;;;;;;16.73;1.52;;;20.20;44.50;;;;;;6040743;29;20047;-74
2023/10/30 08:07:25;;;;;;;7.47;1.80;;;20.20;44.90;;;;;;6040273;29;20116;-71
2023/10/30 08:10:26;;;;;;;9.50;1.88;;;20.20;44.80;;;;;;6037301;29;20351;-71
2023/10/30 08:13:27;;;;;;;6.97;1.33;;;20.20;44.80;;;;;;6026703;29;20060;-71
2023/10/30 08:16:28;;;;;;;6.50;1.33;;;20.20;44.80;;;;;;6025096;29;20044;-74
2023/10/30 08:19:29;;;;;;;6.43;1.38;;;20.20;44.80;;;;;;6042544;29;20045;-73
2023/10/30 08:22:32;;;;;;;5.47;1.33;;;20.20;45.00;;;;;;6026267;29;20048;-73
2023/10/30 08:25:33;;;;;;;6.80;1.80;;;20.20;45.20;;;;;;6026267;29;20440;-72
2023/10/30 08:28:35;;;;;;;4.80;1.33;;;20.20;45.30;;;;;;6042611;29;20048;-72
2023/10/30 08:31:38;;;;;;;13.88;1.88;;;20.10;45.30;;;;;;6049044;29;20036;-71
2023/10/30 08:34:39;;;;;;;4.00;1.30;;;20.10;45.40;;;;;;6049327;29;20136;-72
2023/10/30 08:37:43;;;;;;;3.83;1.30;;;20.10;45.50;;;;;;6047465;29;20041;-72
2023/10/30 08:40:44;;;;;;;3.30;0.95;;;20.00;45.60;;;;;;6049299;29;20504;-71
2023/10/30 08:43:45;;;;;;;2.95;1.25;;;20.10;45.90;;;;;;6047982;29;20033;-72
2023/10/30 08:46:46;;;;;;;2.38;1.23;;;20.20;45.80;;;;;;6047728;29;20033;-72
2023/10/30 08:49:47;;;;;;;4.57;1.00;;;20.30;45.50;;;;;;6045216;29;20518;-72
2023/10/30 08:52:49;;;;;;;3.35;1.35;;;20.60;45.90;;;;;;6040269;29;20111;-72
2023/10/30 08:55:50;;;;;;;3.65;0.70;;;20.70;45.70;;;;;;6027700;29;20041;-71
2023/10/30 08:58:51;;;;;;;1.10;0.60;;;20.90;46.00;;;;;;6028831;29;20025;-73
2023/10/30 09:01:52;;;;;;;1.85;1.00;;;21.20;45.90;;;;;;6049707;29;20688;-72
2023/10/30 09:04:56;;;;;;;8.98;1.02;;;21.50;45.60;;;;;;6053326;29;20033;-71
2023/10/30 09:07:57;;;;;;;4.53;1.38;;;21.60;45.30;;;;;;6049297;29;20153;-71
2023/10/30 09:10:58;;;;;;;8.57;1.50;;;21.80;44.90;;;;;;6053130;29;20088;-72
2023/10/30 09:14:00;;;;;;;6.10;0.82;;;22.00;44.80;;;;;;6051897;29;20114;-72
2023/10/30 09:17:00;;;;;;;2.75;1.02;;;22.10;44.50;;;;;;6051825;29;20124;-71
2023/10/30 09:20:03;;;;;;;3.22;1.20;;;22.20;44.30;;;;;;6038970;29;20391;-72
2023/10/30 09:23:04;;;;;;;11.88;2.97;;;22.30;44.30;;;;;;6030395;29;20029;-72
2023/10/30 09:26:05;;;;;;;8.32;2.03;;;22.30;44.20;;;;;;6030038;29;20451;-73
2023/10/30 09:29:05;;;;;;;3.25;1.10;;;22.30;44.10;;;;;;6050722;29;20089;-71
2023/10/30 09:32:07;;;;;;;1.85;0.90;;;22.50;44.20;;;;;;6051534;29;20500;-73
2023/10/30 09:35:09;;;;;;;13.82;2.65;;;22.50;44.30;;;;;;6053182;29;20093;-72
2023/10/30 09:38:10;;;;;;;7.40;1.98;;;22.60;44.40;;;;;;6053101;29;20052;-72
2023/10/30 09:41:12;;;;;;;5.18;1.40;;;22.70;44.30;;;;;;6053283;29;20040;-72
2023/10/30 09:44:13;;;;;;;2.70;1.15;;;22.70;44.10;;;;;;6054103;29;20054;-73
2023/10/30 09:47:14;;;;;;;6.70;1.00;;;22.70;43.70;;;;;;6041467;29;20045;-74
2023/10/30 09:50:17;;;;;;;4.57;2.00;;;22.70;43.30;;;;;;6036055;29;20133;-71
2023/10/30 09:53:20;;;;;;;4.45;1.60;;;22.40;42.40;;;;;;6031331;29;20033;-72
2023/10/30 09:56:22;;;;;;;4.85;1.65;;;22.10;42.80;;;;;;6028179;29;20169;-72
2023/10/30 09:59:23;;;;;;;4.03;1.52;;;21.80;43.20;;;;;;6043588;29;20037;-72
2023/10/30 10:02:24;;;;;;;3.40;1.42;;;21.80;43.60;;;;;;6052388;29;20037;-73
2023/10/30 10:05:26;;;;;;;5.97;1.77;;;21.60;43.80;;;;;;6050064;29;20044;-72
2023/10/30 10:08:27;;;;;;;7.15;1.60;;;21.50;44.10;;;;;;6049998;29;20132;-74
2023/10/30 10:11:36;;;;;;;11.50;1.58;;;21.40;44.20;;;;;;6051265;29;20033;-72
2023/10/30 10:14:39;;;;;;;9.85;1.95;;;21.30;44.50;;;;;;6049999;29;20037;-74
2023/10/30 10:17:42;;;;;;;6.25;1.85;;;21.20;44.90;;;;;;6049834;29;20174;-72
2023/10/30 10:20:55;;;;;;;15.15;2.05;;;21.10;45.00;;;;;;6029568;29;20060;-71
2023/10/30 10:23:56;;;;;;;2.85;1.40;;;21.10;45.20;;;;;;6026664;29;20374;-72
2023/10/30 10:27:03;;;;;;;3.72;1.55;;;21.00;45.20;;;;;;6032224;29;20033;-72
2023/10/30 10:30:06;;;;;;;16.98;1.58;;;21.00;45.40;;;;;;6050848;29;20085;-72
2023/10/30 10:33:07;;;;;;;7.30;1.40;;;20.90;45.80;;;;;;6049526;29;20036;-73
2023/10/30 10:36:10;;;;;;;2.85;1.05;;;20.70;46.20;;;;;;6049418;29;20409;-73
2023/10/30 10:39:11;;;;;;;4.47;1.40;;;20.70;46.50;;;;;;6050763;29;20033;-70
2023/10/30 10:42:13;;;;;;;9.20;3.35;;;20.60;46.90;;;;;;6047746;29;20067;-72
2023/10/30 10:45:16;;;;;;;8.77;2.55;;;20.50;47.20;;;;;;6027795;29;20065;-73
2023/10/30 10:48:19;;;;;;;6.60;2.70;;;20.40;47.80;;;;;;6026216;29;20085;-72
2023/10/30 10:51:34;;;;;;;8.95;3.03;;;20.40;48.30;;;;;;6026551;29;20045;-71
2023/10/30 10:55:05;;;;;;;5.90;2.33;;;20.40;48.50;;;;;;6027825;29;20052;-71
2023/10/30 10:58:52;;;;;;;7.70;3.03;;;20.40;48.80;;;;;;6029807;29;20094;-72
2023/10/30 11:01:56;;;;;;;5.05;1.65;;;20.40;49.30;;;;;;6026625;29;20047;-72
2023/10/30 11:04:59;;;;;;;2.78;1.33;;;20.50;49.20;;;;;;6025616;29;20040;-71
2023/10/30 11:08:06;;;;;;;7.25;1.30;;;20.60;50.00;;;;;;6027102;29;20025;-70
2023/10/30 11:11:28;;;;;;;4.85;1.60;;;20.60;49.60;;;;;;6032816;29;20037;-72
2023/10/30 11:14:55;;;;;;;14.52;2.40;;;20.60;50.00;;;;;;6049084;29;20120;-72
2023/10/30 11:18:21;;;;;;;7.05;3.35;;;20.60;50.40;;;;;;6049636;29;20021;-74
2023/10/30 11:21:26;;;;;;;4.78;1.52;;;20.60;50.70;;;;;;6025971;29;20454;-72
2023/10/30 11:24:38;;;;;;;5.75;1.42;;;20.60;51.60;;;;;;6041664;29;20061;-73
2023/10/30 11:27:40;;;;;;;2.70;1.00;;;20.60;51.10;;;;;;6038557;29;20045;-71
2023/10/30 11:30:43;;;;;;;4.95;1.13;;;20.60;51.00;;;;;;6051057;29;20439;-72
2023/10/30 11:33:45;;;;;;;2.35;1.17;;;20.60;50.90;;;;;;6050567;29;20028;-72
2023/10/30 11:36:46;;;;;;;2.20;1.17;;;20.70;51.10;;;;;;6052317;29;20037;-72
2023/10/30 11:39:51;;;;;;;7.53;1.88;;;20.70;51.20;;;;;;6049684;29;20056;-73
2023/10/30 11:42:58;;;;;;;4.68;1.73;;;20.60;51.30;;;;;;6051968;29;20073;-71
2023/10/30 11:46:02;;;;;;;3.78;1.15;;;20.70;51.50;;;;;;6054100;29;20044;-72
2023/10/30 11:49:06;;;;;;;4.03;1.20;;;20.70;51.60;;;;;;6048602;29;20032;-74
2023/10/30 11:52:11;;;;;;;6.40;1.60;;;20.70;51.50;;;;;;6049783;29;20033;-71
2023/10/30 11:55:12;;;;;;;4.72;1.20;;;20.80;51.80;;;;;;6049775;29;20115;-72
2023/10/30 11:58:13;;;;;;;2.97;1.58;;;20.70;52.10;;;;;;6049864;29;20025;-72
2023/10/30 12:01:16;;;;;;;4.30;1.25;;;20.60;52.50;;;;;;6049547;29;20022;-71
2023/10/30 12:04:21;;;;;;;1.63;1.05;;;20.50;53.20;;;;;;6048414;29;20028;-71
2023/10/30 12:07:22;;;;;;;5.30;1.25;;;20.40;53.80;;;;;;6050441;29;20141;-72
2023/10/30 12:10:23;;;;;;;2.90;1.60;;;20.30;54.40;;;;;;6048775;29;20025;-73
2023/10/30 12:13:24;;;;;;;12.50;2.13;;;20.30;54.80;;;;;;6047631;29;20406;-72
2023/10/30 12:16:26;;;;;;;5.95;2.00;;;20.10;55.20;;;;;;6049392;29;20041;-72
2023/10/30 12:19:27;;;;;;;7.90;2.08;;;19.90;56.30;;;;;;6037323;29;20393;-72
2023/10/30 12:22:28;;;;;;;6.28;1.70;;;19.80;56.90;;;;;;6024350;29;20041;-71
2023/10/30 12:25:29;;;;;;;3.83;1.75;;;19.60;57.80;;;;;;6039851;29;20052;-72
2023/10/30 12:28:37;;;;;;;7.28;3.75;;;19.50;58.40;;;;;;6041837;29;20108;-71
2023/10/30 12:31:38;;;;;;;4.85;2.45;;;19.40;58.90;;;;;;6047539;29;20462;-72
2023/10/30 12:34:39;;;;;;;11.80;2.88;;;19.40;59.20;;;;;;6049032;29;20051;-72
2023/10/30 12:37:44;;;;;;;10.57;2.80;;;19.30;59.50;;;;;;6048692;29;20168;-72
2023/10/30 12:40:45;;;;;;;9.73;2.88;;;19.10;59.90;;;;;;6062257;29;20118;-73
2023/10/30 12:43:47;;;;;;;8.13;2.42;;;19.00;60.60;;;;;;6062855;29;20072;-72
2023/10/30 12:46:48;;;;;;;6.20;2.05;;;19.00;61.10;;;;;;6047099;29;20074;-72
2023/10/30 12:49:49;;;;;;;9.13;2.38;;;19.00;61.70;;;;;;6047507;29;20043;-73
2023/10/30 12:52:49;;;;;;;10.98;2.38;;;18.90;62.20;;;;;;6047777;29;20069;-73
2023/10/30 12:55:51;;;;;;;5.88;2.08;;;18.90;62.50;;;;;;6048953;29;20399;-72
2023/10/30 12:58:52;;;;;;;4.43;1.50;;;19.00;63.00;;;;;;6047900;29;20033;-74
2023/10/30 13:01:53;;;;;;;7.05;2.53;;;19.00;63.10;;;;;;6054686;29;20112;-72
2023/10/30 13:04:54;;;;;;;6.90;2.20;;;19.00;63.30;;;;;;6025234;29;20025;-75
2023/10/30 13:07:55;;;;;;;8.52;1.65;;;19.00;63.50;;;;;;6025106;29;20046;-72
2023/10/30 13:10:56;;;;;;;8.25;2.10;;;19.00;63.90;;;;;;6028858;29;20029;-74
2023/10/30 13:13:57;;;;;;;7.90;1.88;;;18.90;63.90;;;;;;6048167;29;20071;-72
2023/10/30 13:16:58;;;;;;;3.70;1.50;;;18.90;64.00;;;;;;6047699;29;20033;-75
2023/10/30 13:20:00;;;;;;;5.18;2.03;;;18.90;64.30;;;;;;6033914;29;20395;-70
2023/10/30 13:23:01;;;;;;;3.78;1.38;;;18.90;64.50;;;;;;6025445;29;20037;-74
2023/10/30 13:26:04;;;;;;;4.25;0.90;;;18.90;64.70;;;;;;6023990;29;20387;-72
2023/10/30 13:29:05;;;;;;;8.65;1.35;;;18.90;65.00;;;;;;6044136;29;20028;-72
2023/10/30 13:32:08;;;;;;;7.80;1.65;;;18.80;65.50;;;;;;6047173;29;20041;-73
2023/10/30 13:35:10;;;;;;;9.85;1.10;;;18.70;66.60;;;;;;6050662;29;20036;-72
2023/10/30 13:38:14;;;;;;;2.30;1.20;;;18.70;66.90;;;;;;6059050;29;20033;-75
2023/10/30 13:41:15;;;;;;;3.30;1.35;;;18.60;66.90;;;;;;6053120;29;20101;-74
2023/10/30 13:44:17;;;;;;;6.15;1.40;;;18.50;67.30;;;;;;6052060;29;20132;-72
2023/10/30 13:47:20;;;;;;;2.33;1.50;;;18.40;67.40;;;;;;6034735;29;20117;-72
2023/10/30 13:50:22;;;;;;;3.83;1.70;;;18.40;67.60;;;;;;6049853;29;20428;-73
2023/10/30 13:53:22;;;;;;;6.65;2.13;;;18.40;68.00;;;;;;6052008;29;20426;-72
2023/10/30 13:56:23;;;;;;;6.13;1.90;;;18.30;68.30;;;;;;6065580;29;20045;-71
2023/10/30 13:59:24;;;;;;;2.95;1.35;;;18.30;68.40;;;;;;6050998;29;20578;-73
2023/10/30 14:02:25;;;;;;;7.95;1.38;;;18.30;68.40;;;;;;6029341;29;20062;-73
2023/10/30 14:05:29;;;;;;;1.10;0.90;;;18.30;68.40;;;;;;6027903;29;20376;-71
2023/10/30 14:08:30;;;;;;;5.40;1.30;;;18.30;68.30;;;;;;6029063;29;20057;-71
2023/10/30 14:11:31;;;;;;;6.30;1.00;;;18.30;68.30;;;;;;6037173;29;20036;-74
2023/10/30 14:14:32;;;;;;;5.88;1.48;;;18.30;68.30;;;;;;6052184;29;20077;-73
2023/10/30 14:17:33;;;;;;;7.68;1.52;;;18.30;68.80;;;;;;6050883;29;20045;-73
2023/10/30 14:20:34;;;;;;;6.30;1.88;;;18.30;68.90;;;;;;6031219;29;20047;-71
2023/10/30 14:23:35;;;;;;;2.70;1.60;;;18.30;68.90;;;;;;6027261;29;20439;-73
2023/10/30 14:26:38;;;;;;;1.98;1.20;;;18.40;68.80;;;;;;6028750;29;20037;-73
2023/10/30 14:29:39;;;;;;;7.25;1.75;;;18.30;68.60;;;;;;6049769;29;20060;-72
2023/10/30 14:32:40;;;;;;;6.32;2.42;;;18.40;68.80;;;;;;6052642;29;20498;-74
2023/10/30 14:35:41;;;;;;;11.40;1.98;;;18.40;69.00;;;;;;6052555;29;20033;-72
2023/10/30 14:38:41;;;;;;;6.13;1.70;;;18.30;69.10;;;;;;6065836;29;20116;-72
2023/10/30 14:41:45;;;;;;;4.95;1.58;;;18.30;69.60;;;;;;6065925;29;20078;-73
2023/10/30 14:44:46;;;;;;;3.45;1.50;;;18.30;69.90;;;;;;6059524;29;20545;-72
2023/10/30 14:48:01;;;;;;;5.80;1.83;;;18.10;69.60;;;;;;6049392;29;20089;-72
2023/10/30 14:51:03;;;;;;;3.00;1.33;;;18.10;70.20;;;;;;6050083;29;20108;-73
2023/10/30 14:54:04;;;;;;;2.20;1.00;;;18.10;70.30;;;;;;6050074;29;20091;-71
2023/10/30 14:57:05;;;;;;;1.42;0.85;;;18.10;70.20;;;;;;6051443;29;20081;-72
2023/10/30 15:00:06;;;;;;;2.00;0.98;;;18.10;70.10;;;;;;6050590;29;20037;-73
2023/10/30 15:03:08;;;;;;;2.22;1.00;;;18.10;69.70;;;;;;6065394;29;20137;-72
2023/10/30 15:06:09;;;;;;;3.78;1.15;;;18.20;69.60;;;;;;6051051;29;20037;-72
2023/10/30 15:09:12;;;;;;;4.68;1.30;;;18.20;69.50;;;;;;6051080;29;20052;-74
2023/10/30 15:12:13;;;;;;;6.60;2.25;;;18.20;69.30;;;;;;6035454;29;20098;-72
2023/10/30 15:15:15;;;;;;;1.70;1.38;;;18.10;69.00;;;;;;6027769;29;20052;-75
2023/10/30 15:18:15;;;;;;;11.20;2.95;;;18.20;69.00;;;;;;6028662;29;20040;-75
2023/10/30 15:21:16;;;;;;;4.70;1.42;;;18.20;69.00;;;;;;6049448;29;20037;-72
2023/10/30 15:24:18;;;;;;;5.53;2.28;;;18.20;68.90;;;;;;6050604;29;20142;-73
2023/10/30 15:27:19;;;;;;;3.13;1.90;;;18.20;68.90;;;;;;6050278;29;20088;-73
2023/10/30 15:30:23;;;;;;;4.60;1.92;;;18.20;69.20;;;;;;6048675;29;20029;-72
2023/10/30 15:33:27;;;;;;;4.45;2.72;;;18.20;69.60;;;;;;6070071;29;20025;-71
2023/10/30 15:36:28;;;;;;;3.80;1.40;;;18.20;69.80;;;;;;6059312;29;20033;-73
2023/10/30 15:39:29;;;;;;;2.88;1.30;;;18.20;69.80;;;;;;6049324;29;20052;-72
2023/10/30 15:42:30;;;;;;;7.07;1.25;;;18.20;69.70;;;;;;6041653;29;20025;-75
2023/10/30 15:45:31;;;;;;;3.35;1.13;;;18.20;69.70;;;;;;6049190;29;20043;-72